sensor_id;sensor_type;location;lat;lon;timestamp;pressure;altitude;pressure_sealevel;temperature;humidity
35655;BME280;21773;50.010;19.972;2022-12-29T00:01:51;98767.63;;;9.43;37.84
35655;BME280;21773;50.010;19.972;2022-12-29T00:04:55;98763.69;;;9.46;37.92
35655;BME280;21773;50.010;19.972;2022-12-29T00:07:59;98768.25;;;9.45;37.66
35655;BME280;21773;50.010;19.972;2022-12-29T00:11:03;98767.41;;;9.45;37.85
35655;BME280;21773;50.010;19.972;2022-12-29T00:14:08;98769.34;;;9.38;37.81
35655;BME280;21773;50.010;19.972;2022-12-29T00:17:29;98779.00;;;9.45;38.04
35655;BME280;21773;50.010;19.972;2022-12-29T00:20:33;98775.50;;;9.45;37.92
35655;BME280;21773;50.010;19.972;2022-12-29T00:23:55;98787.56;;;9.36;38.14
35655;BME280;21773;50.010;19.972;2022-12-29T00:27:26;98778.00;;;9.40;37.95
35655;BME280;21773;50.010;19.972;2022-12-29T00:30:49;98776.97;;;9.41;37.86
35655;BME280;21773;50.010;19.972;2022-12-29T00:34:11;98774.91;;;9.43;38.08
35655;BME280;21773;50.010;19.972;2022-12-29T00:37:32;98758.34;;;9.39;37.97
35655;BME280;21773;50.010;19.972;2022-12-29T00:40:50;98778.16;;;9.51;37.92
35655;BME280;21773;50.010;19.972;2022-12-29T00:44:13;98779.53;;;9.61;37.68
35655;BME280;21773;50.010;19.972;2022-12-29T00:47:18;98714.56;;;9.26;37.86
35655;BME280;21773;50.010;19.972;2022-12-29T00:50:21;98771.00;;;9.64;37.54
35655;BME280;21773;50.010;19.972;2022-12-29T00:53:24;98779.03;;;9.70;37.52
35655;BME280;21773;50.010;19.972;2022-12-29T00:56:29;98778.00;;;9.71;37.67
35655;BME280;21773;50.010;19.972;2022-12-29T00:59:34;98778.56;;;9.80;37.58
35655;BME280;21773;50.010;19.972;2022-12-29T01:02:38;98780.63;;;9.78;37.44
35655;BME280;21773;50.010;19.972;2022-12-29T01:05:41;98773.00;;;9.75;37.49
35655;BME280;21773;50.010;19.972;2022-12-29T01:08:47;98786.84;;;9.78;37.36
35655;BME280;21773;50.010;19.972;2022-12-29T01:12:12;98790.59;;;9.77;37.38
35655;BME280;21773;50.010;19.972;2022-12-29T01:15:16;98782.91;;;9.81;37.55
35655;BME280;21773;50.010;19.972;2022-12-29T01:18:20;98775.66;;;9.81;37.37
35655;BME280;21773;50.010;19.972;2022-12-29T01:21:24;98770.28;;;9.81;37.29
35655;BME280;21773;50.010;19.972;2022-12-29T01:24:27;98759.06;;;9.84;37.52
35655;BME280;21773;50.010;19.972;2022-12-29T01:27:32;98762.13;;;9.88;37.43
35655;BME280;21773;50.010;19.972;2022-12-29T01:30:36;98750.69;;;9.92;37.30
35655;BME280;21773;50.010;19.972;2022-12-29T01:33:41;98745.91;;;9.94;37.29
35655;BME280;21773;50.010;19.972;2022-12-29T01:36:46;98733.56;;;9.87;37.33
35655;BME280;21773;50.010;19.972;2022-12-29T01:39:49;98737.31;;;9.86;37.50
35655;BME280;21773;50.010;19.972;2022-12-29T01:42:54;98730.78;;;9.93;37.34
35655;BME280;21773;50.010;19.972;2022-12-29T01:45:57;98725.19;;;9.95;37.58
35655;BME280;21773;50.010;19.972;2022-12-29T01:49:05;98733.44;;;10.00;37.45
35655;BME280;21773;50.010;19.972;2022-12-29T01:52:13;98732.78;;;10.05;37.56
35655;BME280;21773;50.010;19.972;2022-12-29T01:55:17;98726.41;;;9.99;37.37
35655;BME280;21773;50.010;19.972;2022-12-29T01:58:24;98717.94;;;9.95;37.24
35655;BME280;21773;50.010;19.972;2022-12-29T02:01:30;98738.28;;;10.16;37.05
35655;BME280;21773;50.010;19.972;2022-12-29T02:04:40;98744.88;;;10.20;37.38
35655;BME280;21773;50.010;19.972;2022-12-29T02:07:46;98734.69;;;10.22;37.10
35655;BME280;21773;50.010;19.972;2022-12-29T02:10:51;98722.88;;;10.23;37.11
35655;BME280;21773;50.010;19.972;2022-12-29T02:13:58;98712.69;;;10.25;37.27
35655;BME280;21773;50.010;19.972;2022-12-29T02:17:10;98727.59;;;10.28;37.28
35655;BME280;21773;50.010;19.972;2022-12-29T02:20:57;98720.13;;;10.30;37.52
35655;BME280;21773;50.010;19.972;2022-12-29T02:28:35;98712.91;;;10.42;37.47
35655;BME280;21773;50.010;19.972;2022-12-29T02:31:46;98705.44;;;10.44;37.11
35655;BME280;21773;50.010;19.972;2022-12-29T02:34:57;98697.88;;;10.53;36.97
35655;BME280;21773;50.010;19.972;2022-12-29T02:38:13;98706.56;;;10.55;37.03
35655;BME280;21773;50.010;19.972;2022-12-29T02:41:31;98694.06;;;10.60;37.10
35655;BME280;21773;50.010;19.972;2022-12-29T02:44:41;98687.44;;;10.56;36.89
35655;BME280;21773;50.010;19.972;2022-12-29T02:47:54;98682.81;;;10.63;37.13
35655;BME280;21773;50.010;19.972;2022-12-29T02:51:02;98675.53;;;10.64;37.09
35655;BME280;21773;50.010;19.972;2022-12-29T02:54:06;98679.22;;;10.69;37.00
35655;BME280;21773;50.010;19.972;2022-12-29T02:57:31;98670.66;;;10.72;36.92
35655;BME280;21773;50.010;19.972;2022-12-29T03:00:41;98671.34;;;10.68;36.85
35655;BME280;21773;50.010;19.972;2022-12-29T03:04:02;98668.19;;;10.71;37.12
35655;BME280;21773;50.010;19.972;2022-12-29T03:07:14;98664.00;;;10.75;36.84
35655;BME280;21773;50.010;19.972;2022-12-29T03:10:31;98616.03;;;10.47;36.60
35655;BME280;21773;50.010;19.972;2022-12-29T03:13:43;98661.19;;;10.81;36.94
35655;BME280;21773;50.010;19.972;2022-12-29T03:17:11;98663.19;;;10.86;36.76
35655;BME280;21773;50.010;19.972;2022-12-29T03:20:24;98645.63;;;10.83;36.86
35655;BME280;21773;50.010;19.972;2022-12-29T03:23:31;98641.88;;;10.84;36.80
35655;BME280;21773;50.010;19.972;2022-12-29T03:26:37;98647.63;;;10.88;36.66
35655;BME280;21773;50.010;19.972;2022-12-29T03:29:46;98641.06;;;10.84;36.34
35655;BME280;21773;50.010;19.972;2022-12-29T03:32:56;98652.06;;;10.82;36.56
35655;BME280;21773;50.010;19.972;2022-12-29T03:36:09;98619.50;;;10.66;36.63
35655;BME280;21773;50.010;19.972;2022-12-29T03:39:15;98658.28;;;10.83;36.24
35655;BME280;21773;50.010;19.972;2022-12-29T03:42:23;98663.00;;;10.88;36.24
35655;BME280;21773;50.010;19.972;2022-12-29T03:45:29;98655.59;;;10.95;36.22
35655;BME280;21773;50.010;19.972;2022-12-29T03:48:32;98655.16;;;10.98;36.20
35655;BME280;21773;50.010;19.972;2022-12-29T03:51:37;98649.31;;;11.01;36.41
35655;BME280;21773;50.010;19.972;2022-12-29T03:54:41;98641.00;;;11.02;36.28
35655;BME280;21773;50.010;19.972;2022-12-29T03:57:45;98632.97;;;10.96;36.46
35655;BME280;21773;50.010;19.972;2022-12-29T04:00:54;98659.78;;;11.09;36.46
35655;BME280;21773;50.010;19.972;2022-12-29T04:03:58;98669.28;;;11.11;36.64
35655;BME280;21773;50.010;19.972;2022-12-29T04:07:02;98666.09;;;11.14;36.51
35655;BME280;21773;50.010;19.972;2022-12-29T04:10:06;98663.28;;;11.09;36.70
35655;BME280;21773;50.010;19.972;2022-12-29T04:13:11;98668.56;;;11.04;36.79
35655;BME280;21773;50.010;19.972;2022-12-29T04:16:15;98673.56;;;11.01;36.83
35655;BME280;21773;50.010;19.972;2022-12-29T04:19:19;98677.44;;;10.93;36.83
35655;BME280;21773;50.010;19.972;2022-12-29T04:22:25;98690.56;;;10.90;37.26
35655;BME280;21773;50.010;19.972;2022-12-29T04:25:30;98679.78;;;10.90;37.09
35655;BME280;21773;50.010;19.972;2022-12-29T04:28:33;98667.06;;;10.78;37.33
35655;BME280;21773;50.010;19.972;2022-12-29T04:31:50;98662.34;;;10.74;37.10
35655;BME280;21773;50.010;19.972;2022-12-29T04:34:53;98655.16;;;10.68;37.06
35655;BME280;21773;50.010;19.972;2022-12-29T04:37:59;98657.13;;;10.61;37.19
35655;BME280;21773;50.010;19.972;2022-12-29T04:41:03;98661.41;;;10.50;37.02
35655;BME280;21773;50.010;19.972;2022-12-29T04:44:07;98656.47;;;10.47;37.57
35655;BME280;21773;50.010;19.972;2022-12-29T04:47:43;98650.09;;;10.41;37.65
35655;BME280;21773;50.010;19.972;2022-12-29T04:51:11;98647.66;;;10.40;37.75
35655;BME280;21773;50.010;19.972;2022-12-29T04:54:17;98644.97;;;10.40;37.72
35655;BME280;21773;50.010;19.972;2022-12-29T04:57:30;98630.66;;;10.39;37.50
35655;BME280;21773;50.010;19.972;2022-12-29T05:00:35;98613.31;;;10.35;37.45
35655;BME280;21773;50.010;19.972;2022-12-29T05:03:38;98626.31;;;10.38;37.42
35655;BME280;21773;50.010;19.972;2022-12-29T05:06:42;98641.59;;;10.45;37.32
35655;BME280;21773;50.010;19.972;2022-12-29T05:09:47;98637.84;;;10.46;37.13
35655;BME280;21773;50.010;19.972;2022-12-29T05:12:51;98633.50;;;10.45;36.77
35655;BME280;21773;50.010;19.972;2022-12-29T05:15:54;98637.38;;;10.49;36.74
35655;BME280;21773;50.010;19.972;2022-12-29T05:18:58;98626.47;;;10.43;36.83
35655;BME280;21773;50.010;19.972;2022-12-29T05:22:02;98623.63;;;10.38;36.98
35655;BME280;21773;50.010;19.972;2022-12-29T05:25:08;98612.69;;;10.33;37.30
35655;BME280;21773;50.010;19.972;2022-12-29T05:28:42;98608.34;;;10.32;37.27
35655;BME280;21773;50.010;19.972;2022-12-29T05:31:48;98604.47;;;10.28;37.21
35655;BME280;21773;50.010;19.972;2022-12-29T05:34:51;98598.13;;;10.23;37.58
35655;BME280;21773;50.010;19.972;2022-12-29T05:37:54;98590.94;;;10.17;37.69
35655;BME280;21773;50.010;19.972;2022-12-29T05:40:59;98600.13;;;10.09;37.80
35655;BME280;21773;50.010;19.972;2022-12-29T05:44:22;98599.91;;;10.11;37.99
35655;BME280;21773;50.010;19.972;2022-12-29T05:47:49;98604.00;;;10.13;37.96
35655;BME280;21773;50.010;19.972;2022-12-29T05:51:01;98589.31;;;10.16;37.55
35655;BME280;21773;50.010;19.972;2022-12-29T05:54:19;98598.47;;;10.26;37.67
35655;BME280;21773;50.010;19.972;2022-12-29T05:57:24;98596.84;;;10.25;37.70
35655;BME280;21773;50.010;19.972;2022-12-29T06:00:37;98618.22;;;10.38;37.69
35655;BME280;21773;50.010;19.972;2022-12-29T06:03:40;98613.66;;;10.39;37.86
35655;BME280;21773;50.010;19.972;2022-12-29T06:06:49;98601.72;;;10.47;37.73
35655;BME280;21773;50.010;19.972;2022-12-29T06:09:59;98597.31;;;10.52;37.77
35655;BME280;21773;50.010;19.972;2022-12-29T06:13:07;98593.09;;;10.56;37.77
35655;BME280;21773;50.010;19.972;2022-12-29T06:16:14;98606.16;;;10.59;38.01
35655;BME280;21773;50.010;19.972;2022-12-29T06:19:18;98606.72;;;10.61;38.11
35655;BME280;21773;50.010;19.972;2022-12-29T06:22:21;98607.53;;;10.62;38.04
35655;BME280;21773;50.010;19.972;2022-12-29T06:25:25;98603.66;;;10.58;38.20
35655;BME280;21773;50.010;19.972;2022-12-29T06:28:30;98601.31;;;10.61;38.06
35655;BME280;21773;50.010;19.972;2022-12-29T06:31:34;98611.53;;;10.59;38.33
35655;BME280;21773;50.010;19.972;2022-12-29T06:34:38;98607.06;;;10.53;38.61
35655;BME280;21773;50.010;19.972;2022-12-29T06:37:42;98600.16;;;10.57;38.83
35655;BME280;21773;50.010;19.972;2022-12-29T06:40:45;98616.00;;;10.65;38.82
35655;BME280;21773;50.010;19.972;2022-12-29T06:43:55;98607.59;;;10.73;38.59
35655;BME280;21773;50.010;19.972;2022-12-29T06:47:11;98584.97;;;10.74;38.69
35655;BME280;21773;50.010;19.972;2022-12-29T06:50:15;98609.66;;;10.90;38.71
35655;BME280;21773;50.010;19.972;2022-12-29T06:53:18;98602.47;;;10.95;38.64
35655;BME280;21773;50.010;19.972;2022-12-29T06:56:22;98608.00;;;11.00;38.83
35655;BME280;21773;50.010;19.972;2022-12-29T06:59:27;98604.19;;;11.08;38.55
35655;BME280;21773;50.010;19.972;2022-12-29T07:02:30;98596.78;;;11.15;38.47
35655;BME280;21773;50.010;19.972;2022-12-29T07:05:34;98580.84;;;11.13;38.31
35655;BME280;21773;50.010;19.972;2022-12-29T07:08:37;98584.38;;;11.25;38.23
35655;BME280;21773;50.010;19.972;2022-12-29T07:11:41;98578.25;;;11.30;38.29
35655;BME280;21773;50.010;19.972;2022-12-29T07:14:46;98581.09;;;11.35;38.21
35655;BME280;21773;50.010;19.972;2022-12-29T07:17:49;98584.03;;;11.45;37.89
35655;BME280;21773;50.010;19.972;2022-12-29T07:20:52;98585.44;;;11.48;38.01
35655;BME280;21773;50.010;19.972;2022-12-29T07:23:56;98580.72;;;11.55;37.75
35655;BME280;21773;50.010;19.972;2022-12-29T07:26:59;98589.66;;;11.67;37.61
35655;BME280;21773;50.010;19.972;2022-12-29T07:30:05;98593.09;;;11.74;37.49
35655;BME280;21773;50.010;19.972;2022-12-29T07:33:08;98594.38;;;11.83;37.16
35655;BME280;21773;50.010;19.972;2022-12-29T07:36:12;98585.22;;;11.84;37.28
35655;BME280;21773;50.010;19.972;2022-12-29T07:39:16;98599.50;;;12.08;36.98
35655;BME280;21773;50.010;19.972;2022-12-29T07:42:19;98596.78;;;12.20;36.85
35655;BME280;21773;50.010;19.972;2022-12-29T07:45:27;98595.34;;;12.29;36.82
35655;BME280;21773;50.010;19.972;2022-12-29T07:48:42;98590.13;;;12.39;36.56
35655;BME280;21773;50.010;19.972;2022-12-29T07:51:46;98599.28;;;12.49;35.86
35655;BME280;21773;50.010;19.972;2022-12-29T07:54:49;98601.78;;;12.68;35.74
35655;BME280;21773;50.010;19.972;2022-12-29T07:57:53;98595.91;;;12.87;35.53
35655;BME280;21773;50.010;19.972;2022-12-29T08:00:58;98597.09;;;13.08;35.49
35655;BME280;21773;50.010;19.972;2022-12-29T08:04:01;98590.09;;;13.24;35.18
35655;BME280;21773;50.010;19.972;2022-12-29T08:07:05;98588.84;;;13.48;34.81
35655;BME280;21773;50.010;19.972;2022-12-29T08:10:09;98586.94;;;13.65;34.28
35655;BME280;21773;50.010;19.972;2022-12-29T08:13:12;98579.59;;;13.82;34.05
35655;BME280;21773;50.010;19.972;2022-12-29T08:16:17;98589.44;;;14.10;33.70
35655;BME280;21773;50.010;19.972;2022-12-29T08:19:20;98582.84;;;14.45;33.13
35655;BME280;21773;50.010;19.972;2022-12-29T08:22:25;98592.88;;;14.66;33.22
35655;BME280;21773;50.010;19.972;2022-12-29T08:25:28;98587.06;;;14.84;32.04
35655;BME280;21773;50.010;19.972;2022-12-29T08:28:31;98600.03;;;15.36;31.60
35655;BME280;21773;50.010;19.972;2022-12-29T08:31:36;98599.94;;;15.99;30.63
35655;BME280;21773;50.010;19.972;2022-12-29T08:34:40;98603.16;;;16.48;29.76
35655;BME280;21773;50.010;19.972;2022-12-29T08:37:43;98594.88;;;17.01;29.14
35655;BME280;21773;50.010;19.972;2022-12-29T08:40:46;98598.47;;;17.62;27.69
35655;BME280;21773;50.010;19.972;2022-12-29T08:43:50;98597.53;;;18.22;27.66
35655;BME280;21773;50.010;19.972;2022-12-29T08:46:54;98594.28;;;18.79;26.88
35655;BME280;21773;50.010;19.972;2022-12-29T08:49:58;98591.09;;;19.06;26.19
35655;BME280;21773;50.010;19.972;2022-12-29T08:53:01;98583.44;;;19.08;25.65
35655;BME280;21773;50.010;19.972;2022-12-29T08:56:05;98587.75;;;19.19;25.78
35655;BME280;21773;50.010;19.972;2022-12-29T08:59:18;98592.91;;;19.21;25.63
35655;BME280;21773;50.010;19.972;2022-12-29T09:02:24;98587.16;;;19.61;25.46
35655;BME280;21773;50.010;19.972;2022-12-29T09:05:27;98590.16;;;20.41;24.76
35655;BME280;21773;50.010;19.972;2022-12-29T09:08:31;98597.25;;;21.22;23.58
35655;BME280;21773;50.010;19.972;2022-12-29T09:11:34;98589.19;;;22.09;22.66
35655;BME280;21773;50.010;19.972;2022-12-29T09:14:38;98585.16;;;22.97;21.11
35655;BME280;21773;50.010;19.972;2022-12-29T09:17:43;98571.69;;;24.38;20.24
35655;BME280;21773;50.010;19.972;2022-12-29T09:20:47;98568.78;;;25.98;18.97
35655;BME280;21773;50.010;19.972;2022-12-29T09:23:51;98573.75;;;27.09;18.12
35655;BME280;21773;50.010;19.972;2022-12-29T09:26:54;98567.28;;;27.80;17.04
35655;BME280;21773;50.010;19.972;2022-12-29T09:29:57;98563.84;;;29.04;15.99
35655;BME280;21773;50.010;19.972;2022-12-29T09:33:02;98563.91;;;30.03;15.56
35655;BME280;21773;50.010;19.972;2022-12-29T09:36:07;98558.53;;;30.58;15.02
35655;BME280;21773;50.010;19.972;2022-12-29T09:39:12;98554.84;;;30.38;14.26
35655;BME280;21773;50.010;19.972;2022-12-29T09:42:21;98544.44;;;30.50;15.07
35655;BME280;21773;50.010;19.972;2022-12-29T09:45:30;98527.78;;;30.70;14.64
35655;BME280;21773;50.010;19.972;2022-12-29T09:48:41;98524.59;;;31.22;14.46
35655;BME280;21773;50.010;19.972;2022-12-29T09:51:49;98533.84;;;32.10;13.90
35655;BME280;21773;50.010;19.972;2022-12-29T09:54:57;98545.25;;;32.99;13.27
35655;BME280;21773;50.010;19.972;2022-12-29T09:58:17;98544.97;;;34.12;12.58
35655;BME280;21773;50.010;19.972;2022-12-29T10:01:30;98549.72;;;34.04;12.44
35655;BME280;21773;50.010;19.972;2022-12-29T10:04:37;98546.22;;;32.84;13.03
35655;BME280;21773;50.010;19.972;2022-12-29T10:07:47;98540.25;;;31.49;13.58
35655;BME280;21773;50.010;19.972;2022-12-29T10:10:55;98541.84;;;30.92;14.01
35655;BME280;21773;50.010;19.972;2022-12-29T10:14:17;98531.13;;;31.10;14.21
35655;BME280;21773;50.010;19.972;2022-12-29T10:17:29;98534.75;;;31.53;13.48
35655;BME280;21773;50.010;19.972;2022-12-29T10:20:48;98520.72;;;31.88;13.38
35655;BME280;21773;50.010;19.972;2022-12-29T10:23:53;98526.88;;;32.19;13.12
35655;BME280;21773;50.010;19.972;2022-12-29T10:26:58;98528.09;;;32.45;13.10
35655;BME280;21773;50.010;19.972;2022-12-29T10:30:03;98530.59;;;32.53;12.54
35655;BME280;21773;50.010;19.972;2022-12-29T10:33:11;98531.97;;;32.40;12.91
35655;BME280;21773;50.010;19.972;2022-12-29T10:36:27;98526.19;;;32.52;12.81
35655;BME280;21773;50.010;19.972;2022-12-29T10:39:37;98524.59;;;32.25;12.73
35655;BME280;21773;50.010;19.972;2022-12-29T10:42:45;98516.03;;;32.41;12.82
35655;BME280;21773;50.010;19.972;2022-12-29T10:45:49;98519.56;;;32.87;12.81
35655;BME280;21773;50.010;19.972;2022-12-29T10:48:55;98518.44;;;33.21;12.58
35655;BME280;21773;50.010;19.972;2022-12-29T10:52:02;98510.34;;;33.46;12.43
35655;BME280;21773;50.010;19.972;2022-12-29T10:55:12;98522.88;;;33.63;12.68
35655;BME280;21773;50.010;19.972;2022-12-29T10:58:16;98505.03;;;33.67;12.38
35655;BME280;21773;50.010;19.972;2022-12-29T11:01:20;98494.63;;;32.75;13.29
35655;BME280;21773;50.010;19.972;2022-12-29T11:04:42;98472.31;;;31.34;14.09
35655;BME280;21773;50.010;19.972;2022-12-29T11:07:56;98486.44;;;30.02;15.19
35655;BME280;21773;50.010;19.972;2022-12-29T11:11:02;98476.06;;;28.72;16.21
35655;BME280;21773;50.010;19.972;2022-12-29T11:14:12;98479.19;;;27.73;16.67
35655;BME280;21773;50.010;19.972;2022-12-29T11:17:17;98464.97;;;26.76;17.72
35655;BME280;21773;50.010;19.972;2022-12-29T11:20:29;98486.41;;;26.00;18.82
35655;BME280;21773;50.010;19.972;2022-12-29T11:23:36;98482.59;;;25.20;19.34
35655;BME280;21773;50.010;19.972;2022-12-29T11:26:39;98485.13;;;24.39;20.15
35655;BME280;21773;50.010;19.972;2022-12-29T11:29:47;98476.97;;;23.77;20.79
35655;BME280;21773;50.010;19.972;2022-12-29T11:32:52;98470.13;;;23.13;21.11
35655;BME280;21773;50.010;19.972;2022-12-29T11:35:58;98479.00;;;22.87;22.00
35655;BME280;21773;50.010;19.972;2022-12-29T11:39:03;98480.69;;;22.75;22.02
35655;BME280;21773;50.010;19.972;2022-12-29T11:42:16;98475.44;;;22.51;22.30
35655;BME280;21773;50.010;19.972;2022-12-29T11:45:22;98483.75;;;23.18;21.91
35655;BME280;21773;50.010;19.972;2022-12-29T11:48:29;98476.53;;;24.40;20.75
35655;BME280;21773;50.010;19.972;2022-12-29T11:51:39;98475.94;;;25.84;19.26
35655;BME280;21773;50.010;19.972;2022-12-29T11:54:47;98475.66;;;27.19;18.01
35655;BME280;21773;50.010;19.972;2022-12-29T11:57:52;98469.44;;;28.24;17.63
35655;BME280;21773;50.010;19.972;2022-12-29T12:01:01;98476.47;;;29.14;15.89
35655;BME280;21773;50.010;19.972;2022-12-29T12:04:07;98464.72;;;29.60;16.47
35655;BME280;21773;50.010;19.972;2022-12-29T12:07:15;98464.34;;;29.46;16.22
35655;BME280;21773;50.010;19.972;2022-12-29T12:10:25;98464.78;;;28.93;16.65
35655;BME280;21773;50.010;19.972;2022-12-29T12:13:34;98468.69;;;27.79;17.30
35655;BME280;21773;50.010;19.972;2022-12-29T12:16:43;98467.78;;;26.47;18.49
35655;BME280;21773;50.010;19.972;2022-12-29T12:19:56;98463.44;;;25.15;19.83
35655;BME280;21773;50.010;19.972;2022-12-29T12:23:08;98465.41;;;24.06;21.15
35655;BME280;21773;50.010;19.972;2022-12-29T12:26:20;98463.66;;;23.40;22.11
35655;BME280;21773;50.010;19.972;2022-12-29T12:29:28;98463.09;;;22.62;22.53
35655;BME280;21773;50.010;19.972;2022-12-29T12:32:41;98470.75;;;22.02;23.83
35655;BME280;21773;50.010;19.972;2022-12-29T12:35:53;98451.06;;;21.27;24.58
35655;BME280;21773;50.010;19.972;2022-12-29T12:39:07;98465.53;;;20.81;25.16
35655;BME280;21773;50.010;19.972;2022-12-29T12:42:29;98464.50;;;20.40;26.11
35655;BME280;21773;50.010;19.972;2022-12-29T12:45:47;98464.03;;;19.90;26.69
35655;BME280;21773;50.010;19.972;2022-12-29T12:49:12;98458.78;;;19.70;26.96
35655;BME280;21773;50.010;19.972;2022-12-29T12:52:28;98451.25;;;19.33;27.42
35655;BME280;21773;50.010;19.972;2022-12-29T12:55:58;98455.06;;;19.03;28.30
35655;BME280;21773;50.010;19.972;2022-12-29T12:59:17;98456.56;;;18.90;28.47
35655;BME280;21773;50.010;19.972;2022-12-29T13:02:36;98462.47;;;18.69;28.89
35655;BME280;21773;50.010;19.972;2022-12-29T13:06:04;98458.22;;;18.42;29.31
35655;BME280;21773;50.010;19.972;2022-12-29T13:12:49;98467.47;;;18.07;30.01
35655;BME280;21773;50.010;19.972;2022-12-29T13:16:01;98457.13;;;17.99;30.18
35655;BME280;21773;50.010;19.972;2022-12-29T13:19:22;98483.66;;;17.84;30.71
35655;BME280;21773;50.010;19.972;2022-12-29T13:22:34;98474.97;;;17.66;30.88
35655;BME280;21773;50.010;19.972;2022-12-29T13:25:44;98464.06;;;17.66;31.27
35655;BME280;21773;50.010;19.972;2022-12-29T13:28:55;98478.53;;;17.57;31.25
35655;BME280;21773;50.010;19.972;2022-12-29T13:32:16;98477.47;;;17.38;31.68
35655;BME280;21773;50.010;19.972;2022-12-29T13:35:50;98478.81;;;17.50;31.23
35655;BME280;21773;50.010;19.972;2022-12-29T13:39:02;98476.34;;;17.54;31.19
35655;BME280;21773;50.010;19.972;2022-12-29T13:42:07;98476.88;;;17.51;31.08
35655;BME280;21773;50.010;19.972;2022-12-29T13:45:16;98469.56;;;17.36;31.41
35655;BME280;21773;50.010;19.972;2022-12-29T13:48:23;98470.66;;;17.30;31.66
35655;BME280;21773;50.010;19.972;2022-12-29T13:51:28;98476.69;;;17.22;31.42
35655;BME280;21773;50.010;19.972;2022-12-29T13:54:41;98480.50;;;17.16;31.60
35655;BME280;21773;50.010;19.972;2022-12-29T13:57:50;98488.97;;;17.09;32.03
35655;BME280;21773;50.010;19.972;2022-12-29T14:01:00;98473.97;;;16.81;32.28
35655;BME280;21773;50.010;19.972;2022-12-29T14:04:12;98478.63;;;16.76;32.47
35655;BME280;21773;50.010;19.972;2022-12-29T14:07:17;98473.44;;;16.64;32.72
35655;BME280;21773;50.010;19.972;2022-12-29T14:10:28;98467.66;;;16.51;32.93
35655;BME280;21773;50.010;19.972;2022-12-29T14:13:37;98484.22;;;16.34;33.36
35655;BME280;21773;50.010;19.972;2022-12-29T14:16:41;98475.22;;;16.28;33.16
35655;BME280;21773;50.010;19.972;2022-12-29T14:19:51;98472.22;;;16.20;33.61
35655;BME280;21773;50.010;19.972;2022-12-29T14:22:57;98477.91;;;16.13;33.56
35655;BME280;21773;50.010;19.972;2022-12-29T14:26:16;98479.81;;;16.08;33.75
35655;BME280;21773;50.010;19.972;2022-12-29T14:29:44;98482.84;;;16.21;33.50
35655;BME280;21773;50.010;19.972;2022-12-29T14:33:01;98470.59;;;16.24;33.25
35655;BME280;21773;50.010;19.972;2022-12-29T14:36:25;98469.50;;;16.20;33.58
35655;BME280;21773;50.010;19.972;2022-12-29T14:39:36;98474.94;;;16.15;33.64
35655;BME280;21773;50.010;19.972;2022-12-29T14:42:41;98475.19;;;16.13;33.42
35655;BME280;21773;50.010;19.972;2022-12-29T14:45:54;98471.91;;;16.01;33.88
35655;BME280;21773;50.010;19.972;2022-12-29T14:48:59;98471.31;;;15.94;33.85
35655;BME280;21773;50.010;19.972;2022-12-29T14:52:14;98472.09;;;15.84;34.07
35655;BME280;21773;50.010;19.972;2022-12-29T14:55:31;98482.91;;;15.74;34.12
35655;BME280;21773;50.010;19.972;2022-12-29T14:58:46;98475.53;;;15.65;34.36
35655;BME280;21773;50.010;19.972;2022-12-29T15:01:53;98492.94;;;15.64;34.43
35655;BME280;21773;50.010;19.972;2022-12-29T15:05:00;98495.13;;;15.67;34.08
35655;BME280;21773;50.010;19.972;2022-12-29T15:08:06;98493.22;;;15.67;34.47
35655;BME280;21773;50.010;19.972;2022-12-29T15:11:14;98497.03;;;15.66;34.54
35655;BME280;21773;50.010;19.972;2022-12-29T15:14:33;98501.09;;;15.64;34.40
35655;BME280;21773;50.010;19.972;2022-12-29T15:17:37;98504.28;;;15.55;34.61
35655;BME280;21773;50.010;19.972;2022-12-29T15:20:42;98492.53;;;15.50;34.60
35655;BME280;21773;50.010;19.972;2022-12-29T15:23:47;98497.13;;;15.39;34.70
35655;BME280;21773;50.010;19.972;2022-12-29T15:26:53;98501.06;;;15.22;34.79
35655;BME280;21773;50.010;19.972;2022-12-29T15:29:57;98485.47;;;15.07;35.02
35655;BME280;21773;50.010;19.972;2022-12-29T15:33:01;98485.69;;;14.95;35.03
35655;BME280;21773;50.010;19.972;2022-12-29T15:36:10;98493.44;;;14.87;35.27
35655;BME280;21773;50.010;19.972;2022-12-29T15:39:19;98496.59;;;14.73;35.61
35655;BME280;21773;50.010;19.972;2022-12-29T15:42:36;98468.66;;;14.41;36.00
35655;BME280;21773;50.010;19.972;2022-12-29T15:45:44;98498.53;;;14.46;36.22
35655;BME280;21773;50.010;19.972;2022-12-29T15:48:47;98497.25;;;14.32;36.29
35655;BME280;21773;50.010;19.972;2022-12-29T15:51:51;98497.19;;;14.27;36.61
35655;BME280;21773;50.010;19.972;2022-12-29T15:54:58;98496.00;;;14.18;36.84
35655;BME280;21773;50.010;19.972;2022-12-29T15:58:04;98489.34;;;14.04;36.98
35655;BME280;21773;50.010;19.972;2022-12-29T16:01:17;98492.94;;;14.09;36.72
35655;BME280;21773;50.010;19.972;2022-12-29T16:04:21;98501.00;;;14.04;36.72
35655;BME280;21773;50.010;19.972;2022-12-29T16:07:28;98476.63;;;13.82;37.29
35655;BME280;21773;50.010;19.972;2022-12-29T16:10:42;98495.16;;;13.91;37.75
35655;BME280;21773;50.010;19.972;2022-12-29T16:13:48;98495.66;;;13.87;37.08
35655;BME280;21773;50.010;19.972;2022-12-29T16:16:52;98489.59;;;13.80;37.72
35655;BME280;21773;50.010;19.972;2022-12-29T16:20:03;98484.19;;;13.80;37.39
35655;BME280;21773;50.010;19.972;2022-12-29T16:23:18;98500.13;;;13.77;37.48
35655;BME280;21773;50.010;19.972;2022-12-29T16:26:24;98494.72;;;13.77;37.86
35655;BME280;21773;50.010;19.972;2022-12-29T16:29:29;98486.38;;;13.83;37.35
35655;BME280;21773;50.010;19.972;2022-12-29T16:32:33;98489.09;;;13.83;37.74
35655;BME280;21773;50.010;19.972;2022-12-29T16:35:44;98492.06;;;13.82;37.60